createdAt,value
2022-10-10T00:01:56.994Z,73.65
2022-10-10T00:04:24.650Z,73.76
2022-10-10T00:06:52.347Z,73.95
2022-10-10T00:09:19.902Z,73.68
2022-10-10T00:11:47.648Z,73.63
2022-10-10T00:14:15.510Z,73.93
2022-10-10T00:16:47.582Z,73.79
2022-10-10T00:19:15.529Z,73.91
2022-10-10T00:21:43.037Z,74.30
2022-10-10T00:24:11.900Z,74.05
2022-10-10T00:26:40.503Z,74.37
2022-10-10T00:29:11.454Z,75.17
2022-10-10T00:31:39.066Z,75.17
2022-10-10T00:34:15.159Z,75.72
2022-10-10T00:36:42.723Z,75.27
2022-10-10T00:39:10.343Z,75.28
2022-10-10T00:41:38.091Z,75.06
2022-10-10T00:44:09.096Z,74.96
2022-10-10T00:46:37.592Z,74.96
2022-10-10T00:49:18.498Z,74.59
2022-10-10T00:51:51.248Z,74.58
2022-10-10T00:54:23.023Z,74.63
2022-10-10T00:57:14.513Z,75.28
2022-10-10T00:59:54.161Z,75.99
2022-10-10T01:02:32.459Z,75.74
2022-10-10T01:05:14.926Z,75.51
2022-10-10T01:07:58.921Z,75.67
2022-10-10T01:10:45.314Z,75.96
2022-10-10T01:13:56.286Z,76.27
2022-10-10T01:17:16.600Z,76.38
2022-10-10T01:20:12.028Z,76.62
2022-10-10T01:23:26.743Z,76.78
2022-10-10T01:26:41.270Z,76.98
2022-10-10T01:32:40.246Z,77.11
2022-10-10T01:35:43.042Z,77.51
2022-10-10T01:38:32.114Z,77.63
2022-10-10T01:41:09.310Z,77.57
2022-10-10T01:43:38.062Z,77.18
2022-10-10T01:46:18.557Z,77.57
2022-10-10T01:48:50.613Z,77.23
2022-10-10T01:51:39.461Z,77.03
2022-10-10T01:54:45.238Z,77.41
2022-10-10T01:57:42.648Z,77.26
2022-10-10T02:00:16.284Z,77.38
2022-10-10T02:03:09.018Z,77.35
2022-10-10T02:05:55.032Z,77.07
2022-10-10T02:08:28.815Z,77.21
2022-10-10T02:11:12.270Z,77.15
2022-10-10T02:13:50.380Z,76.92
2022-10-10T02:16:49.468Z,76.50
2022-10-10T02:19:20.634Z,76.50
2022-10-10T02:21:51.642Z,76.56
2022-10-10T02:24:23.414Z,76.21
2022-10-10T02:27:31.664Z,76.44
2022-10-10T02:30:17.238Z,75.84
2022-10-10T02:33:06.616Z,76.34
2022-10-10T02:35:48.192Z,76.16
2022-10-10T02:38:23.312Z,76.41
2022-10-10T02:41:15.256Z,76.31
2022-10-10T02:43:58.650Z,76.34
2022-10-10T02:47:05.606Z,76.64
2022-10-10T02:49:44.843Z,77.00
2022-10-10T02:53:24.928Z,76.69
2022-10-10T02:55:52.068Z,76.80
2022-10-10T02:58:19.421Z,76.72
2022-10-10T03:00:46.837Z,76.85
2022-10-10T03:03:14.666Z,76.81
2022-10-10T03:05:42.172Z,76.79
2022-10-10T03:08:11.865Z,76.91
2022-10-10T03:10:39.435Z,76.83
2022-10-10T03:13:06.826Z,76.78
2022-10-10T03:15:34.132Z,76.87
2022-10-10T03:18:01.761Z,76.80
2022-10-10T03:20:29.554Z,76.77
2022-10-10T03:22:56.945Z,76.69
2022-10-10T03:25:24.277Z,76.67
2022-10-10T03:27:51.591Z,76.52
2022-10-10T03:30:18.989Z,76.92
2022-10-10T03:32:46.431Z,76.71
2022-10-10T03:35:14.138Z,76.86
2022-10-10T03:37:42.031Z,76.64
2022-10-10T03:40:09.994Z,76.78
2022-10-10T03:42:37.659Z,77.02
2022-10-10T03:45:06.149Z,77.10
2022-10-10T03:47:33.437Z,77.05
2022-10-10T03:50:00.710Z,77.21
2022-10-10T03:52:27.975Z,77.13
2022-10-10T03:54:55.252Z,77.02
2022-10-10T03:57:22.644Z,77.07
2022-10-10T03:59:50.510Z,77.12
2022-10-10T04:02:17.894Z,77.30
2022-10-10T04:04:45.529Z,77.29
2022-10-10T04:07:13.189Z,77.10
2022-10-10T04:09:40.878Z,77.01
2022-10-10T04:12:08.360Z,77.09
2022-10-10T04:14:36.074Z,76.93
2022-10-10T04:17:04.784Z,76.98
2022-10-10T04:19:32.188Z,76.90
2022-10-10T04:21:59.692Z,76.72
2022-10-10T04:24:27.308Z,76.98
2022-10-10T04:26:54.771Z,77.03
2022-10-10T04:29:24.237Z,77.13
2022-10-10T04:31:52.124Z,77.20
2022-10-10T04:34:20.166Z,76.89
2022-10-10T04:36:47.725Z,76.81
2022-10-10T04:39:15.317Z,76.91
2022-10-10T04:41:42.736Z,76.73
2022-10-10T04:44:10.100Z,76.61
2022-10-10T04:46:37.450Z,76.40
2022-10-10T04:49:04.617Z,76.53
2022-10-10T04:51:32.597Z,76.29
2022-10-10T04:53:59.933Z,76.20
2022-10-10T04:56:28.200Z,76.15
2022-10-10T04:58:55.573Z,76.20
2022-10-10T05:01:23.084Z,76.10
2022-10-10T05:04:00.826Z,76.20
2022-10-10T05:06:28.490Z,76.31
2022-10-10T05:08:57.586Z,76.20
2022-10-10T05:11:25.727Z,76.05
2022-10-10T05:13:53.187Z,76.21
2022-10-10T05:16:27.847Z,77.52
2022-10-10T05:19:41.857Z,75.96
2022-10-10T05:22:21.049Z,75.85
2022-10-10T05:24:57.352Z,75.92
2022-10-10T05:27:35.451Z,76.25
2022-10-10T05:30:12.460Z,76.37
2022-10-10T05:32:40.170Z,76.23
2022-10-10T05:35:10.663Z,76.39
2022-10-10T05:37:48.872Z,76.58
2022-10-10T05:40:28.920Z,76.40
2022-10-10T05:43:30.792Z,76.76
2022-10-10T05:46:03.985Z,77.08
2022-10-10T05:48:34.214Z,77.08
2022-10-10T05:51:02.383Z,77.21
2022-10-10T05:53:31.194Z,76.75
2022-10-10T05:56:01.279Z,76.79
2022-10-10T05:58:30.697Z,76.94
2022-10-10T06:01:05.067Z,76.92
2022-10-10T06:03:34.111Z,76.76
2022-10-10T06:06:04.392Z,76.67
2022-10-10T06:08:34.057Z,76.99
2022-10-10T06:11:05.452Z,76.89
2022-10-10T06:13:44.055Z,76.77
2022-10-10T06:16:24.348Z,76.96
2022-10-10T06:18:52.414Z,76.95
2022-10-10T06:21:20.392Z,76.62
2022-10-10T06:23:47.762Z,76.39
2022-10-10T06:26:16.157Z,76.64
2022-10-10T06:28:43.917Z,76.43
2022-10-10T06:31:14.967Z,76.38
2022-10-10T06:33:45.982Z,76.01
2022-10-10T06:36:14.743Z,75.91
2022-10-10T06:38:47.532Z,75.83
2022-10-10T06:41:15.114Z,75.66
2022-10-10T06:43:42.883Z,75.60
2022-10-10T06:46:12.547Z,75.26
2022-10-10T06:48:40.855Z,75.18
2022-10-10T06:51:13.423Z,74.99
2022-10-10T06:53:54.431Z,74.79
2022-10-10T06:56:36.724Z,74.54
2022-10-10T06:59:17.404Z,74.57
2022-10-10T07:01:47.610Z,75.25
2022-10-10T07:04:15.158Z,74.90
2022-10-10T07:06:42.528Z,74.89
2022-10-10T07:09:10.012Z,74.70
2022-10-10T07:11:39.102Z,74.42
2022-10-10T07:14:28.115Z,74.10
2022-10-10T07:16:59.154Z,73.98
2022-10-10T07:19:36.907Z,73.79
2022-10-10T07:22:04.432Z,73.67
2022-10-10T07:24:32.187Z,73.42
2022-10-10T07:27:06.239Z,73.70
2022-10-10T07:29:35.779Z,73.34
2022-10-10T07:32:03.204Z,72.61
2022-10-10T07:34:30.409Z,72.60
2022-10-10T07:36:57.819Z,72.50
2022-10-10T07:39:26.451Z,72.11
2022-10-10T07:41:54.601Z,73.27
2022-10-10T07:44:24.757Z,72.21
2022-10-10T07:46:52.125Z,72.28
2022-10-10T07:49:19.671Z,72.16
2022-10-10T07:51:47.111Z,72.47
2022-10-10T07:54:14.393Z,72.62
2022-10-10T07:56:41.639Z,72.56
2022-10-10T07:59:09.078Z,72.28
2022-10-10T08:01:36.272Z,72.65
2022-10-10T08:04:11.296Z,71.94
2022-10-10T08:06:44.470Z,71.69
2022-10-10T08:09:11.920Z,71.86
2022-10-10T08:11:39.286Z,71.63
2022-10-10T08:14:07.680Z,71.24
2022-10-10T08:16:35.070Z,71.38
2022-10-10T08:19:02.752Z,71.59
2022-10-10T08:21:31.558Z,71.42
2022-10-10T08:23:58.712Z,72.10
2022-10-10T08:26:25.906Z,72.61
2022-10-10T08:28:53.356Z,71.89
2022-10-10T08:31:24.315Z,71.95
2022-10-10T08:33:54.593Z,71.66
2022-10-10T08:36:24.707Z,71.98
2022-10-10T08:38:57.515Z,72.38
2022-10-10T08:41:28.552Z,72.21
2022-10-10T08:44:04.709Z,72.26
2022-10-10T08:46:55.922Z,71.84
2022-10-10T08:49:37.301Z,71.70
2022-10-10T08:52:32.679Z,71.64
2022-10-10T08:55:08.082Z,71.64
2022-10-10T08:57:44.560Z,71.75
2022-10-10T09:00:18.064Z,71.68
2022-10-10T09:02:55.111Z,71.35
2022-10-10T09:06:05.992Z,70.82
2022-10-10T09:09:00.499Z,71.08
2022-10-10T09:11:33.574Z,70.70
2022-10-10T09:14:36.772Z,70.64
2022-10-10T09:17:35.794Z,70.37
2022-10-10T09:20:19.411Z,70.02
2022-10-10T09:22:57.418Z,69.30
2022-10-10T09:25:33.303Z,69.43
2022-10-10T09:28:08.697Z,69.23
2022-10-10T09:30:47.335Z,68.71
2022-10-10T09:33:42.495Z,69.13
2022-10-10T09:36:26.859Z,68.55
2022-10-10T09:39:04.517Z,68.04
2022-10-10T09:44:50.589Z,68.43
2022-10-10T09:47:32.482Z,69.71
2022-10-10T09:52:33.636Z,70.50
2022-10-10T09:55:30.353Z,71.00
2022-10-10T09:58:25.091Z,70.54
2022-10-10T10:00:59.325Z,70.84
2022-10-10T10:03:32.273Z,70.96
2022-10-10T10:06:06.367Z,70.98
2022-10-10T10:08:39.444Z,70.89
2022-10-10T10:11:20.903Z,71.37
2022-10-10T10:13:55.994Z,71.01
2022-10-10T10:16:40.248Z,71.45
2022-10-10T10:19:35.361Z,70.96
2022-10-10T10:22:03.526Z,71.29
2022-10-10T10:24:39.478Z,70.92
2022-10-10T10:27:17.314Z,70.40
2022-10-10T10:29:57.566Z,70.61
2022-10-10T10:32:59.029Z,70.94
2022-10-10T10:35:35.711Z,71.07
2022-10-10T10:38:24.751Z,71.47
2022-10-10T10:41:08.345Z,69.70
2022-10-10T10:43:38.823Z,69.15
2022-10-10T10:46:29.636Z,69.60
2022-10-10T10:49:02.806Z,69.25
2022-10-10T10:52:07.460Z,68.90
2022-10-10T10:55:24.352Z,68.81
2022-10-10T11:01:54.735Z,68.45
2022-10-10T11:05:21.127Z,68.62
2022-10-10T11:08:11.381Z,68.42
2022-10-10T11:11:08.708Z,68.26
2022-10-10T11:13:56.039Z,69.05
2022-10-10T11:16:49.543Z,68.79
2022-10-10T11:19:34.900Z,68.90
2022-10-10T11:22:22.611Z,68.71
2022-10-10T11:24:56.501Z,69.00
2022-10-10T11:27:33.032Z,69.16
2022-10-10T11:30:15.440Z,69.24
2022-10-10T11:32:54.648Z,69.20
2022-10-10T11:35:34.980Z,68.55
2022-10-10T11:38:11.674Z,68.67
2022-10-10T11:40:54.665Z,68.10
2022-10-10T11:43:36.851Z,67.82
2022-10-10T11:46:27.673Z,67.49
2022-10-10T11:49:28.344Z,67.73
2022-10-10T11:52:32.561Z,67.35
2022-10-10T11:55:10.841Z,67.69
2022-10-10T11:57:54.103Z,68.59
2022-10-10T12:00:22.177Z,69.38
2022-10-10T12:02:50.289Z,68.38
2022-10-10T12:05:32.105Z,68.35
2022-10-10T12:08:18.012Z,68.75
2022-10-10T12:11:27.651Z,67.57
2022-10-10T12:14:02.986Z,68.55
2022-10-10T12:16:33.847Z,68.37
2022-10-10T12:19:24.525Z,68.46
2022-10-10T12:21:59.872Z,68.32
2022-10-10T12:24:56.896Z,67.73
2022-10-10T12:27:43.462Z,68.23
2022-10-10T12:30:20.820Z,67.76
2022-10-10T12:32:50.778Z,67.74
2022-10-10T12:35:41.178Z,68.62
2022-10-10T12:38:14.098Z,68.80
2022-10-10T12:41:05.915Z,68.74
2022-10-10T12:43:45.414Z,68.67
2022-10-10T12:46:32.263Z,67.61
2022-10-10T12:48:59.667Z,67.63
2022-10-10T12:51:28.826Z,67.24
2022-10-10T12:54:01.578Z,66.59
2022-10-10T12:56:45.545Z,66.28
2022-10-10T12:59:26.590Z,66.67
2022-10-10T13:02:05.528Z,65.75
2022-10-10T13:04:34.909Z,65.54
2022-10-10T13:07:13.431Z,65.50
2022-10-10T13:09:46.715Z,65.94
2022-10-10T13:12:32.922Z,65.91
2022-10-10T13:15:23.413Z,66.28
2022-10-10T13:17:53.757Z,66.65
2022-10-10T13:20:40.803Z,66.54
2022-10-10T13:23:14.824Z,66.45
2022-10-10T13:25:50.907Z,66.52
2022-10-10T13:28:28.452Z,66.55
2022-10-10T13:30:56.787Z,66.82
2022-10-10T13:33:33.138Z,66.92
2022-10-10T13:36:09.510Z,66.97
2022-10-10T13:38:42.468Z,66.82
2022-10-10T13:41:11.352Z,66.86
2022-10-10T13:43:43.970Z,66.77
2022-10-10T13:46:50.832Z,66.63
2022-10-10T13:49:26.541Z,66.43
2022-10-10T13:52:22.479Z,66.02
2022-10-10T13:54:50.581Z,66.83
2022-10-10T13:57:18.357Z,67.06
2022-10-10T13:59:50.002Z,66.53
2022-10-10T14:02:25.861Z,67.07
2022-10-10T14:04:58.012Z,67.05
2022-10-10T14:07:31.136Z,67.66
2022-10-10T14:10:10.534Z,67.47
2022-10-10T14:16:33.633Z,67.16
2022-10-10T14:19:01.151Z,67.38
2022-10-10T14:21:28.577Z,67.26
2022-10-10T14:23:56.126Z,67.16
2022-10-10T14:26:24.190Z,66.71
2022-10-10T14:28:56.912Z,67.33
2022-10-10T14:31:29.174Z,67.35
2022-10-10T14:33:57.645Z,67.58
2022-10-10T14:36:31.747Z,68.09
2022-10-10T14:38:59.931Z,67.68
2022-10-10T14:41:30.207Z,68.12
2022-10-10T14:43:58.269Z,67.93
2022-10-10T14:46:28.139Z,67.70
2022-10-10T14:48:56.039Z,67.85
2022-10-10T14:51:33.054Z,67.83
2022-10-10T14:54:10.965Z,67.94
2022-10-10T14:57:07.079Z,67.91
2022-10-10T14:59:46.302Z,67.73
2022-10-10T15:06:29.579Z,68.46
2022-10-10T15:09:39.440Z,68.78
2022-10-10T15:12:04.890Z,68.81
2022-10-10T15:14:40.162Z,69.09
2022-10-10T15:17:10.262Z,69.17
2022-10-10T15:19:40.126Z,69.14
2022-10-10T15:22:07.535Z,69.05
2022-10-10T15:24:49.998Z,68.93
2022-10-10T15:27:19.758Z,68.85
2022-10-10T15:29:47.371Z,68.50
2022-10-10T15:32:20.233Z,68.40
2022-10-10T15:34:54.891Z,68.51
2022-10-10T15:37:28.143Z,68.83
2022-10-10T15:39:56.037Z,69.08
2022-10-10T15:42:23.976Z,69.34
2022-10-10T15:44:52.074Z,68.88
2022-10-10T15:47:22.366Z,69.10
2022-10-10T15:50:05.684Z,68.67
2022-10-10T15:52:36.100Z,68.47
2022-10-10T15:55:47.191Z,68.75
2022-10-10T15:58:25.199Z,68.25
2022-10-10T16:00:53.606Z,68.81
2022-10-10T16:03:21.039Z,69.05
2022-10-10T16:05:55.128Z,69.14
2022-10-10T16:08:24.134Z,69.06
2022-10-10T16:10:52.104Z,69.42
2022-10-10T16:13:19.970Z,69.40
2022-10-10T16:15:57.878Z,70.00
2022-10-10T16:18:36.622Z,70.34
2022-10-10T16:21:09.525Z,70.62
2022-10-10T16:23:40.869Z,71.07
2022-10-10T16:26:12.483Z,70.93
2022-10-10T16:28:40.924Z,71.33
2022-10-10T16:31:10.811Z,71.04
2022-10-10T16:33:41.727Z,71.17
2022-10-10T16:36:15.420Z,71.58
2022-10-10T16:38:43.268Z,71.60
2022-10-10T16:41:29.118Z,71.53
2022-10-10T16:44:04.333Z,71.26
2022-10-10T16:46:34.696Z,70.81
2022-10-10T16:49:02.651Z,70.75
2022-10-10T16:51:31.829Z,70.80
2022-10-10T16:54:06.377Z,70.77
2022-10-10T16:56:34.622Z,70.62
2022-10-10T16:59:10.032Z,70.85
2022-10-10T17:01:38.192Z,71.38
2022-10-10T17:04:13.594Z,71.35
2022-10-10T17:06:43.653Z,71.15
2022-10-10T17:09:16.244Z,71.43
2022-10-10T17:11:51.526Z,71.37
2022-10-10T17:14:27.189Z,71.41
2022-10-10T17:17:25.691Z,71.40
2022-10-10T17:19:57.471Z,71.54
2022-10-10T17:22:25.251Z,71.66
2022-10-10T17:24:56.733Z,71.71
2022-10-10T17:27:25.387Z,72.00
2022-10-10T17:29:54.858Z,71.93
2022-10-10T17:32:23.261Z,71.80
2022-10-10T17:34:56.228Z,72.29
2022-10-10T17:37:23.775Z,72.03
2022-10-10T17:39:54.548Z,71.92
2022-10-10T17:42:22.298Z,72.11
2022-10-10T17:44:53.987Z,72.38
2022-10-10T17:47:27.379Z,72.59
2022-10-10T17:49:55.107Z,72.38
2022-10-10T17:52:22.946Z,72.68
2022-10-10T17:55:05.277Z,72.26
2022-10-10T17:57:39.480Z,72.61
2022-10-10T18:00:09.147Z,72.46
2022-10-10T18:02:36.821Z,72.76
2022-10-10T18:05:04.952Z,72.67
2022-10-10T18:07:32.868Z,72.65
2022-10-10T18:10:01.678Z,72.42
2022-10-10T18:12:29.817Z,72.58
2022-10-10T18:15:14.934Z,72.76
2022-10-10T18:17:42.904Z,72.26
2022-10-10T18:20:14.301Z,72.44
2022-10-10T18:22:47.242Z,72.26
2022-10-10T18:25:14.780Z,72.27
2022-10-10T18:27:42.283Z,72.30
2022-10-10T18:30:10.728Z,72.63
2022-10-10T18:32:44.586Z,72.69
2022-10-10T18:35:17.737Z,72.67
2022-10-10T18:38:01.973Z,72.62
2022-10-10T18:40:37.262Z,72.13
2022-10-10T18:46:39.588Z,72.66
2022-10-10T18:49:50.153Z,72.53
2022-10-10T18:52:58.847Z,72.86
2022-10-10T18:55:51.792Z,72.87
2022-10-10T18:58:56.671Z,72.53
2022-10-10T19:01:37.618Z,72.58
2022-10-10T19:04:09.690Z,72.53
2022-10-10T19:06:44.027Z,72.45
2022-10-10T19:09:36.453Z,72.52
2022-10-10T19:12:17.023Z,71.91
2022-10-10T19:14:56.448Z,72.04
2022-10-10T19:17:30.889Z,72.29
2022-10-10T19:20:01.222Z,72.10
2022-10-10T19:22:34.074Z,72.09
2022-10-10T19:25:05.525Z,71.95
2022-10-10T19:27:41.786Z,72.03
2022-10-10T19:30:21.374Z,72.56
2022-10-10T19:32:54.323Z,72.64
2022-10-10T19:35:27.786Z,72.63
2022-10-10T19:37:58.673Z,72.43
2022-10-10T19:40:32.658Z,72.86
2022-10-10T19:43:18.270Z,72.95
2022-10-10T19:46:00.089Z,72.58
2022-10-10T19:48:54.316Z,72.93
2022-10-10T19:51:49.708Z,72.94
2022-10-10T19:54:36.499Z,72.92
2022-10-10T19:57:11.401Z,73.04
2022-10-10T19:59:39.376Z,72.87
2022-10-10T20:02:20.283Z,72.86
2022-10-10T20:04:53.603Z,72.91
2022-10-10T20:07:22.202Z,73.00
2022-10-10T20:09:55.891Z,73.27
2022-10-10T20:12:23.491Z,73.16
2022-10-10T20:14:52.949Z,73.18
2022-10-10T20:17:20.924Z,72.98
2022-10-10T20:19:54.509Z,72.89
2022-10-10T20:22:22.730Z,72.80
2022-10-10T20:24:51.018Z,72.62
2022-10-10T20:27:18.640Z,72.57
2022-10-10T20:29:46.407Z,73.02
2022-10-10T20:32:14.006Z,72.88
2022-10-10T20:34:41.579Z,73.22
2022-10-10T20:37:09.796Z,72.95
2022-10-10T20:39:42.279Z,73.24
2022-10-10T20:42:09.947Z,73.27
2022-10-10T20:44:39.525Z,73.48
2022-10-10T20:47:07.432Z,73.80
2022-10-10T20:49:46.797Z,73.94
2022-10-10T20:52:18.838Z,73.94
2022-10-10T20:54:54.677Z,74.19
2022-10-10T20:57:22.907Z,74.16
2022-10-10T20:59:50.710Z,74.09
2022-10-10T21:02:19.527Z,74.81
2022-10-10T21:04:47.601Z,74.04
2022-10-10T21:07:15.455Z,74.71
2022-10-10T21:09:49.796Z,74.40
2022-10-10T21:12:33.562Z,74.60
2022-10-10T21:15:02.992Z,74.39
2022-10-10T21:17:31.152Z,74.26
2022-10-10T21:20:04.664Z,74.49
2022-10-10T21:22:33.484Z,74.12
2022-10-10T21:25:01.242Z,73.87
2022-10-10T21:27:29.494Z,73.62
2022-10-10T21:30:05.212Z,73.86
2022-10-10T21:32:32.900Z,73.48
2022-10-10T21:35:00.724Z,73.25
2022-10-10T21:37:29.711Z,73.30
2022-10-10T21:39:57.405Z,73.43
2022-10-10T21:42:25.020Z,73.36
2022-10-10T21:44:52.484Z,72.92
2022-10-10T21:47:19.905Z,72.65
2022-10-10T21:49:52.827Z,72.89
2022-10-10T21:52:29.305Z,72.91
2022-10-10T21:54:56.941Z,73.41
2022-10-10T21:57:24.754Z,73.67
2022-10-10T21:59:52.969Z,73.52
2022-10-10T22:02:20.423Z,73.35
2022-10-10T22:04:51.678Z,73.85
2022-10-10T22:07:19.599Z,73.54
2022-10-10T22:09:50.910Z,73.78
2022-10-10T22:12:20.220Z,73.49
2022-10-10T22:14:49.126Z,73.78
2022-10-10T22:17:16.952Z,73.92
2022-10-10T22:19:44.908Z,73.62
2022-10-10T22:22:12.686Z,73.43
2022-10-10T22:24:41.539Z,73.73
2022-10-10T22:27:11.231Z,73.49
2022-10-10T22:29:39.053Z,73.51
2022-10-10T22:32:06.917Z,73.79
2022-10-10T22:34:34.647Z,73.58
2022-10-10T22:37:03.257Z,73.75
2022-10-10T22:39:31.470Z,73.43
2022-10-10T22:42:20.907Z,73.52
2022-10-10T22:45:04.051Z,73.83
2022-10-10T22:47:32.232Z,73.53
2022-10-10T22:50:00.931Z,73.71
2022-10-10T22:52:28.883Z,73.75
2022-10-10T22:54:56.531Z,73.86
2022-10-10T22:57:24.306Z,74.15
2022-10-10T22:59:54.263Z,74.19
2022-10-10T23:02:21.720Z,74.43
2022-10-10T23:04:50.393Z,74.72
2022-10-10T23:07:21.887Z,74.65
2022-10-10T23:09:49.892Z,74.49
2022-10-10T23:12:17.481Z,74.75
2022-10-10T23:14:45.318Z,74.51
2022-10-10T23:17:12.668Z,74.71
2022-10-10T23:19:45.457Z,74.52
2022-10-10T23:22:13.304Z,74.93
2022-10-10T23:24:41.606Z,75.21
2022-10-10T23:27:09.158Z,75.28
2022-10-10T23:29:37.023Z,75.40
2022-10-10T23:32:05.204Z,75.65
2022-10-10T23:34:33.273Z,75.45
2022-10-10T23:37:01.117Z,75.30
2022-10-10T23:39:28.787Z,75.29
2022-10-10T23:41:56.747Z,75.69
2022-10-10T23:44:24.534Z,75.60
2022-10-10T23:46:52.284Z,75.72
2022-10-10T23:49:19.869Z,75.68
2022-10-10T23:51:47.835Z,75.45
2022-10-10T23:54:16.088Z,75.51
2022-10-10T23:56:49.403Z,75.59
2022-10-10T23:59:17.368Z,75.61
